sensor_id;sensor_type;location;lat;lon;timestamp;temperature;humidity
16643;DHT22;8435;52.184;5.406;2022-07-25T00:01:21;26.20;84.30
16643;DHT22;8435;52.184;5.406;2022-07-25T00:03:48;26.20;84.30
16643;DHT22;8435;52.184;5.406;2022-07-25T00:06:14;26.10;84.40
16643;DHT22;8435;52.184;5.406;2022-07-25T00:08:42;26.20;84.50
16643;DHT22;8435;52.184;5.406;2022-07-25T00:11:09;26.10;84.50
16643;DHT22;8435;52.184;5.406;2022-07-25T00:13:36;26.10;84.50
16643;DHT22;8435;52.184;5.406;2022-07-25T00:16:03;26.10;84.60
16643;DHT22;8435;52.184;5.406;2022-07-25T00:18:30;26.00;84.60
16643;DHT22;8435;52.184;5.406;2022-07-25T00:20:56;26.00;84.70
16643;DHT22;8435;52.184;5.406;2022-07-25T00:23:25;26.00;84.80
16643;DHT22;8435;52.184;5.406;2022-07-25T00:25:55;26.00;84.80
16643;DHT22;8435;52.184;5.406;2022-07-25T00:28:22;26.00;85.30
16643;DHT22;8435;52.184;5.406;2022-07-25T00:30:48;25.90;85.30
16643;DHT22;8435;52.184;5.406;2022-07-25T00:33:15;25.90;85.40
16643;DHT22;8435;52.184;5.406;2022-07-25T00:35:42;25.90;85.40
16643;DHT22;8435;52.184;5.406;2022-07-25T00:38:10;25.80;85.40
16643;DHT22;8435;52.184;5.406;2022-07-25T00:40:40;25.80;85.50
16643;DHT22;8435;52.184;5.406;2022-07-25T00:43:10;25.80;85.50
16643;DHT22;8435;52.184;5.406;2022-07-25T00:45:37;25.80;85.90
16643;DHT22;8435;52.184;5.406;2022-07-25T00:48:07;25.70;85.60
16643;DHT22;8435;52.184;5.406;2022-07-25T00:50:34;25.70;85.80
16643;DHT22;8435;52.184;5.406;2022-07-25T00:53:01;25.70;85.90
16643;DHT22;8435;52.184;5.406;2022-07-25T00:55:30;25.70;85.90
16643;DHT22;8435;52.184;5.406;2022-07-25T00:57:58;25.70;86.10
16643;DHT22;8435;52.184;5.406;2022-07-25T01:00:26;25.60;86.20
16643;DHT22;8435;52.184;5.406;2022-07-25T01:02:54;25.60;86.50
16643;DHT22;8435;52.184;5.406;2022-07-25T01:05:21;25.50;86.50
16643;DHT22;8435;52.184;5.406;2022-07-25T01:07:48;25.50;86.50
16643;DHT22;8435;52.184;5.406;2022-07-25T01:10:14;25.50;86.50
16643;DHT22;8435;52.184;5.406;2022-07-25T01:12:48;25.50;86.60
16643;DHT22;8435;52.184;5.406;2022-07-25T01:15:16;25.40;86.90
16643;DHT22;8435;52.184;5.406;2022-07-25T01:17:44;25.40;86.70
16643;DHT22;8435;52.184;5.406;2022-07-25T01:20:14;25.40;87.00
16643;DHT22;8435;52.184;5.406;2022-07-25T01:22:41;25.40;87.10
16643;DHT22;8435;52.184;5.406;2022-07-25T01:25:09;25.30;87.00
16643;DHT22;8435;52.184;5.406;2022-07-25T01:27:38;25.40;87.10
16643;DHT22;8435;52.184;5.406;2022-07-25T01:30:07;25.30;87.30
16643;DHT22;8435;52.184;5.406;2022-07-25T01:32:36;25.30;87.60
16643;DHT22;8435;52.184;5.406;2022-07-25T01:35:05;25.30;87.60
16643;DHT22;8435;52.184;5.406;2022-07-25T01:37:33;25.30;87.60
16643;DHT22;8435;52.184;5.406;2022-07-25T01:40:04;25.30;87.60
16643;DHT22;8435;52.184;5.406;2022-07-25T01:42:32;25.30;87.80
16643;DHT22;8435;52.184;5.406;2022-07-25T01:44:59;25.30;87.90
16643;DHT22;8435;52.184;5.406;2022-07-25T01:47:26;25.30;87.60
16643;DHT22;8435;52.184;5.406;2022-07-25T01:49:53;25.20;87.50
16643;DHT22;8435;52.184;5.406;2022-07-25T01:52:19;25.20;87.60
16643;DHT22;8435;52.184;5.406;2022-07-25T01:54:47;25.20;88.60
16643;DHT22;8435;52.184;5.406;2022-07-25T01:57:14;25.30;88.10
16643;DHT22;8435;52.184;5.406;2022-07-25T01:59:41;25.20;87.90
16643;DHT22;8435;52.184;5.406;2022-07-25T02:02:10;25.30;88.20
16643;DHT22;8435;52.184;5.406;2022-07-25T02:04:37;25.30;88.40
16643;DHT22;8435;52.184;5.406;2022-07-25T02:07:04;25.30;88.00
16643;DHT22;8435;52.184;5.406;2022-07-25T02:09:30;25.30;88.00
16643;DHT22;8435;52.184;5.406;2022-07-25T02:12:01;25.30;88.00
16643;DHT22;8435;52.184;5.406;2022-07-25T02:14:28;25.20;88.00
16643;DHT22;8435;52.184;5.406;2022-07-25T02:16:55;25.20;88.00
16643;DHT22;8435;52.184;5.406;2022-07-25T02:19:22;25.20;88.00
16643;DHT22;8435;52.184;5.406;2022-07-25T02:21:48;25.20;88.20
16643;DHT22;8435;52.184;5.406;2022-07-25T02:24:21;25.20;88.20
16643;DHT22;8435;52.184;5.406;2022-07-25T02:26:47;25.10;88.30
16643;DHT22;8435;52.184;5.406;2022-07-25T02:29:16;25.10;88.20
16643;DHT22;8435;52.184;5.406;2022-07-25T02:31:42;25.10;88.30
16643;DHT22;8435;52.184;5.406;2022-07-25T02:34:09;25.10;88.40
16643;DHT22;8435;52.184;5.406;2022-07-25T02:36:36;25.10;88.50
16643;DHT22;8435;52.184;5.406;2022-07-25T02:39:03;25.10;88.70
16643;DHT22;8435;52.184;5.406;2022-07-25T02:41:40;25.10;88.80
16643;DHT22;8435;52.184;5.406;2022-07-25T02:44:07;25.10;88.90
16643;DHT22;8435;52.184;5.406;2022-07-25T02:46:35;25.00;88.90
16643;DHT22;8435;52.184;5.406;2022-07-25T02:49:02;25.00;89.00
16643;DHT22;8435;52.184;5.406;2022-07-25T02:51:29;25.00;89.10
16643;DHT22;8435;52.184;5.406;2022-07-25T02:53:56;25.00;89.20
16643;DHT22;8435;52.184;5.406;2022-07-25T02:56:23;24.90;89.30
16643;DHT22;8435;52.184;5.406;2022-07-25T02:58:51;24.90;89.40
16643;DHT22;8435;52.184;5.406;2022-07-25T03:01:18;24.90;89.60
16643;DHT22;8435;52.184;5.406;2022-07-25T03:03:46;24.90;89.60
16643;DHT22;8435;52.184;5.406;2022-07-25T03:06:13;24.80;89.80
16643;DHT22;8435;52.184;5.406;2022-07-25T03:08:42;24.80;89.70
16643;DHT22;8435;52.184;5.406;2022-07-25T03:11:10;24.80;89.70
16643;DHT22;8435;52.184;5.406;2022-07-25T03:13:37;24.80;89.70
16643;DHT22;8435;52.184;5.406;2022-07-25T03:16:04;24.80;89.80
16643;DHT22;8435;52.184;5.406;2022-07-25T03:18:31;24.70;89.80
16643;DHT22;8435;52.184;5.406;2022-07-25T03:20:59;24.70;89.80
16643;DHT22;8435;52.184;5.406;2022-07-25T03:23:26;24.70;90.00
16643;DHT22;8435;52.184;5.406;2022-07-25T03:25:54;24.70;89.90
16643;DHT22;8435;52.184;5.406;2022-07-25T03:28:24;24.70;90.00
16643;DHT22;8435;52.184;5.406;2022-07-25T03:30:51;24.70;90.10
16643;DHT22;8435;52.184;5.406;2022-07-25T03:33:26;24.70;90.00
16643;DHT22;8435;52.184;5.406;2022-07-25T03:35:53;24.60;90.20
16643;DHT22;8435;52.184;5.406;2022-07-25T03:38:22;24.60;90.40
16643;DHT22;8435;52.184;5.406;2022-07-25T03:40:49;24.60;90.20
16643;DHT22;8435;52.184;5.406;2022-07-25T03:43:16;24.60;90.20
16643;DHT22;8435;52.184;5.406;2022-07-25T03:45:45;24.50;90.20
16643;DHT22;8435;52.184;5.406;2022-07-25T03:48:12;24.50;90.40
16643;DHT22;8435;52.184;5.406;2022-07-25T03:50:42;24.50;90.30
16643;DHT22;8435;52.184;5.406;2022-07-25T03:53:08;24.50;90.40
16643;DHT22;8435;52.184;5.406;2022-07-25T03:55:37;24.50;90.40
16643;DHT22;8435;52.184;5.406;2022-07-25T03:58:04;24.40;90.40
16643;DHT22;8435;52.184;5.406;2022-07-25T04:00:31;24.40;90.40
16643;DHT22;8435;52.184;5.406;2022-07-25T04:02:58;24.40;90.50
16643;DHT22;8435;52.184;5.406;2022-07-25T04:05:28;24.40;90.70
16643;DHT22;8435;52.184;5.406;2022-07-25T04:07:55;24.40;90.70
16643;DHT22;8435;52.184;5.406;2022-07-25T04:10:21;24.30;90.70
16643;DHT22;8435;52.184;5.406;2022-07-25T04:12:52;24.30;90.70
16643;DHT22;8435;52.184;5.406;2022-07-25T04:15:18;24.30;90.80
16643;DHT22;8435;52.184;5.406;2022-07-25T04:17:51;24.30;90.80
16643;DHT22;8435;52.184;5.406;2022-07-25T04:20:20;24.30;90.80
16643;DHT22;8435;52.184;5.406;2022-07-25T04:22:47;24.30;90.90
16643;DHT22;8435;52.184;5.406;2022-07-25T04:25:13;24.30;91.20
16643;DHT22;8435;52.184;5.406;2022-07-25T04:27:42;24.30;90.90
16643;DHT22;8435;52.184;5.406;2022-07-25T04:30:11;24.30;90.90
16643;DHT22;8435;52.184;5.406;2022-07-25T04:32:38;24.30;90.90
16643;DHT22;8435;52.184;5.406;2022-07-25T04:35:09;24.30;91.10
16643;DHT22;8435;52.184;5.406;2022-07-25T04:37:35;24.30;90.80
16643;DHT22;8435;52.184;5.406;2022-07-25T04:40:03;24.30;90.80
16643;DHT22;8435;52.184;5.406;2022-07-25T04:42:30;24.40;90.70
16643;DHT22;8435;52.184;5.406;2022-07-25T04:44:57;24.40;90.70
16643;DHT22;8435;52.184;5.406;2022-07-25T04:47:25;24.40;90.70
16643;DHT22;8435;52.184;5.406;2022-07-25T04:49:54;24.40;90.70
16643;DHT22;8435;52.184;5.406;2022-07-25T04:52:21;24.50;90.70
16643;DHT22;8435;52.184;5.406;2022-07-25T04:54:48;24.50;90.70
16643;DHT22;8435;52.184;5.406;2022-07-25T04:57:15;24.50;90.60
16643;DHT22;8435;52.184;5.406;2022-07-25T04:59:41;24.60;90.50
16643;DHT22;8435;52.184;5.406;2022-07-25T05:02:08;24.60;90.50
16643;DHT22;8435;52.184;5.406;2022-07-25T05:04:36;24.70;90.40
16643;DHT22;8435;52.184;5.406;2022-07-25T05:07:03;24.70;90.40
16643;DHT22;8435;52.184;5.406;2022-07-25T05:09:30;24.70;90.30
16643;DHT22;8435;52.184;5.406;2022-07-25T05:11:57;24.80;90.30
16643;DHT22;8435;52.184;5.406;2022-07-25T05:14:25;24.80;90.20
16643;DHT22;8435;52.184;5.406;2022-07-25T05:16:52;24.90;90.20
16643;DHT22;8435;52.184;5.406;2022-07-25T05:19:19;24.90;90.10
16643;DHT22;8435;52.184;5.406;2022-07-25T05:21:47;24.90;90.00
16643;DHT22;8435;52.184;5.406;2022-07-25T05:24:14;25.00;90.00
16643;DHT22;8435;52.184;5.406;2022-07-25T05:26:40;25.00;89.90
16643;DHT22;8435;52.184;5.406;2022-07-25T05:29:09;25.00;89.70
16643;DHT22;8435;52.184;5.406;2022-07-25T05:31:36;25.10;89.70
16643;DHT22;8435;52.184;5.406;2022-07-25T05:34:03;25.10;89.50
16643;DHT22;8435;52.184;5.406;2022-07-25T05:36:29;25.20;89.50
16643;DHT22;8435;52.184;5.406;2022-07-25T05:39:00;25.20;89.50
16643;DHT22;8435;52.184;5.406;2022-07-25T05:41:27;25.30;89.40
16643;DHT22;8435;52.184;5.406;2022-07-25T05:43:54;25.30;89.30
16643;DHT22;8435;52.184;5.406;2022-07-25T05:46:20;25.40;89.10
16643;DHT22;8435;52.184;5.406;2022-07-25T05:48:50;25.40;89.20
16643;DHT22;8435;52.184;5.406;2022-07-25T05:51:16;25.50;89.30
16643;DHT22;8435;52.184;5.406;2022-07-25T05:53:43;25.60;89.10
16643;DHT22;8435;52.184;5.406;2022-07-25T05:56:11;25.70;89.30
16643;DHT22;8435;52.184;5.406;2022-07-25T05:58:38;25.70;88.90
16643;DHT22;8435;52.184;5.406;2022-07-25T06:01:05;25.80;88.80
16643;DHT22;8435;52.184;5.406;2022-07-25T06:03:35;25.90;88.90
16643;DHT22;8435;52.184;5.406;2022-07-25T06:06:02;26.00;88.80
16643;DHT22;8435;52.184;5.406;2022-07-25T06:08:29;26.00;88.60
16643;DHT22;8435;52.184;5.406;2022-07-25T06:11:02;26.10;88.30
16643;DHT22;8435;52.184;5.406;2022-07-25T06:13:31;26.10;88.40
16643;DHT22;8435;52.184;5.406;2022-07-25T06:15:58;26.20;88.20
16643;DHT22;8435;52.184;5.406;2022-07-25T06:18:29;26.20;88.50
16643;DHT22;8435;52.184;5.406;2022-07-25T06:20:55;26.10;88.40
16643;DHT22;8435;52.184;5.406;2022-07-25T06:23:22;26.20;88.00
16643;DHT22;8435;52.184;5.406;2022-07-25T06:25:49;26.30;88.10
16643;DHT22;8435;52.184;5.406;2022-07-25T06:28:16;26.40;87.90
16643;DHT22;8435;52.184;5.406;2022-07-25T06:30:47;26.50;88.10
16643;DHT22;8435;52.184;5.406;2022-07-25T06:33:14;26.50;87.50
16643;DHT22;8435;52.184;5.406;2022-07-25T06:35:40;26.60;87.50
16643;DHT22;8435;52.184;5.406;2022-07-25T06:38:07;26.70;87.10
16643;DHT22;8435;52.184;5.406;2022-07-25T06:40:34;26.80;86.60
16643;DHT22;8435;52.184;5.406;2022-07-25T06:43:04;26.90;86.50
16643;DHT22;8435;52.184;5.406;2022-07-25T06:45:31;27.10;86.00
16643;DHT22;8435;52.184;5.406;2022-07-25T06:47:59;27.20;85.30
16643;DHT22;8435;52.184;5.406;2022-07-25T06:50:28;27.40;85.50
16643;DHT22;8435;52.184;5.406;2022-07-25T06:52:55;27.50;85.00
16643;DHT22;8435;52.184;5.406;2022-07-25T06:55:22;27.70;84.60
16643;DHT22;8435;52.184;5.406;2022-07-25T06:57:49;27.90;84.40
16643;DHT22;8435;52.184;5.406;2022-07-25T07:00:16;28.20;83.40
16643;DHT22;8435;52.184;5.406;2022-07-25T07:02:48;28.40;83.30
16643;DHT22;8435;52.184;5.406;2022-07-25T07:05:16;28.50;82.90
16643;DHT22;8435;52.184;5.406;2022-07-25T07:07:43;28.80;82.60
16643;DHT22;8435;52.184;5.406;2022-07-25T07:10:10;29.00;81.40
16643;DHT22;8435;52.184;5.406;2022-07-25T07:12:36;29.10;79.00
16643;DHT22;8435;52.184;5.406;2022-07-25T07:15:04;29.30;78.20
16643;DHT22;8435;52.184;5.406;2022-07-25T07:17:31;29.30;76.20
16643;DHT22;8435;52.184;5.406;2022-07-25T07:19:57;29.20;75.60
16643;DHT22;8435;52.184;5.406;2022-07-25T07:22:25;29.10;74.50
16643;DHT22;8435;52.184;5.406;2022-07-25T07:24:54;29.00;74.30
16643;DHT22;8435;52.184;5.406;2022-07-25T07:27:21;28.90;74.80
16643;DHT22;8435;52.184;5.406;2022-07-25T07:29:48;28.80;75.40
16643;DHT22;8435;52.184;5.406;2022-07-25T07:32:15;28.70;74.80
16643;DHT22;8435;52.184;5.406;2022-07-25T07:34:45;28.60;74.40
16643;DHT22;8435;52.184;5.406;2022-07-25T07:37:12;28.60;74.60
16643;DHT22;8435;52.184;5.406;2022-07-25T07:39:41;28.50;75.00
16643;DHT22;8435;52.184;5.406;2022-07-25T07:42:08;28.40;75.30
16643;DHT22;8435;52.184;5.406;2022-07-25T07:44:35;28.30;75.60
16643;DHT22;8435;52.184;5.406;2022-07-25T07:47:02;28.20;76.40
16643;DHT22;8435;52.184;5.406;2022-07-25T07:49:28;28.20;76.40
16643;DHT22;8435;52.184;5.406;2022-07-25T07:51:55;28.10;76.80
16643;DHT22;8435;52.184;5.406;2022-07-25T07:54:22;28.00;77.30
16643;DHT22;8435;52.184;5.406;2022-07-25T07:57:08;28.00;77.80
16643;DHT22;8435;52.184;5.406;2022-07-25T07:59:37;28.00;78.20
16643;DHT22;8435;52.184;5.406;2022-07-25T08:02:04;28.00;79.10
16643;DHT22;8435;52.184;5.406;2022-07-25T08:04:31;28.00;79.30
16643;DHT22;8435;52.184;5.406;2022-07-25T08:06:59;28.10;79.30
16643;DHT22;8435;52.184;5.406;2022-07-25T08:09:26;28.10;79.10
16643;DHT22;8435;52.184;5.406;2022-07-25T08:11:54;28.20;79.10
16643;DHT22;8435;52.184;5.406;2022-07-25T08:14:22;28.20;79.40
16643;DHT22;8435;52.184;5.406;2022-07-25T08:16:48;28.20;80.10
16643;DHT22;8435;52.184;5.406;2022-07-25T08:19:17;28.40;80.60
16643;DHT22;8435;52.184;5.406;2022-07-25T08:21:43;28.50;80.70
16643;DHT22;8435;52.184;5.406;2022-07-25T08:24:13;28.60;80.90
16643;DHT22;8435;52.184;5.406;2022-07-25T08:26:39;28.80;80.40
16643;DHT22;8435;52.184;5.406;2022-07-25T08:29:06;29.00;80.00
16643;DHT22;8435;52.184;5.406;2022-07-25T08:31:34;29.10;79.50
16643;DHT22;8435;52.184;5.406;2022-07-25T08:34:01;29.20;79.20
16643;DHT22;8435;52.184;5.406;2022-07-25T08:36:28;29.30;79.30
16643;DHT22;8435;52.184;5.406;2022-07-25T08:38:55;29.20;79.00
16643;DHT22;8435;52.184;5.406;2022-07-25T08:41:22;29.20;78.80
16643;DHT22;8435;52.184;5.406;2022-07-25T08:43:50;29.00;78.20
16643;DHT22;8435;52.184;5.406;2022-07-25T08:46:17;28.90;78.10
16643;DHT22;8435;52.184;5.406;2022-07-25T08:48:45;28.80;78.90
16643;DHT22;8435;52.184;5.406;2022-07-25T08:51:12;28.70;79.20
16643;DHT22;8435;52.184;5.406;2022-07-25T08:53:39;28.70;80.00
16643;DHT22;8435;52.184;5.406;2022-07-25T08:56:07;28.80;80.20
16643;DHT22;8435;52.184;5.406;2022-07-25T08:58:34;29.00;79.40
16643;DHT22;8435;52.184;5.406;2022-07-25T09:01:01;29.20;79.30
16643;DHT22;8435;52.184;5.406;2022-07-25T09:03:28;29.30;78.60
16643;DHT22;8435;52.184;5.406;2022-07-25T09:05:56;29.40;77.60
16643;DHT22;8435;52.184;5.406;2022-07-25T09:08:23;29.50;77.30
16643;DHT22;8435;52.184;5.406;2022-07-25T09:10:51;29.60;76.70
16643;DHT22;8435;52.184;5.406;2022-07-25T09:13:20;29.60;76.60
16643;DHT22;8435;52.184;5.406;2022-07-25T09:15:49;29.70;77.20
16643;DHT22;8435;52.184;5.406;2022-07-25T09:18:17;29.70;77.70
16643;DHT22;8435;52.184;5.406;2022-07-25T09:20:48;29.90;77.70
16643;DHT22;8435;52.184;5.406;2022-07-25T09:23:28;30.10;76.90
16643;DHT22;8435;52.184;5.406;2022-07-25T09:26:01;30.20;75.60
16643;DHT22;8435;52.184;5.406;2022-07-25T09:28:29;30.30;75.20
16643;DHT22;8435;52.184;5.406;2022-07-25T09:30:57;30.40;76.30
16643;DHT22;8435;52.184;5.406;2022-07-25T09:33:26;30.40;74.60
16643;DHT22;8435;52.184;5.406;2022-07-25T09:35:54;30.40;74.00
16643;DHT22;8435;52.184;5.406;2022-07-25T09:38:22;30.40;72.90
16643;DHT22;8435;52.184;5.406;2022-07-25T09:40:55;30.40;73.20
16643;DHT22;8435;52.184;5.406;2022-07-25T09:43:33;30.30;72.50
16643;DHT22;8435;52.184;5.406;2022-07-25T09:46:00;30.20;72.50
16643;DHT22;8435;52.184;5.406;2022-07-25T09:48:27;30.10;73.10
16643;DHT22;8435;52.184;5.406;2022-07-25T09:50:55;30.00;73.60
16643;DHT22;8435;52.184;5.406;2022-07-25T09:53:22;30.00;73.90
16643;DHT22;8435;52.184;5.406;2022-07-25T09:55:51;30.00;74.30
16643;DHT22;8435;52.184;5.406;2022-07-25T09:58:20;30.10;73.60
16643;DHT22;8435;52.184;5.406;2022-07-25T10:00:48;30.30;73.30
16643;DHT22;8435;52.184;5.406;2022-07-25T10:03:17;30.40;73.30
16643;DHT22;8435;52.184;5.406;2022-07-25T10:06:13;30.60;72.70
16643;DHT22;8435;52.184;5.406;2022-07-25T10:08:45;30.80;72.60
16643;DHT22;8435;52.184;5.406;2022-07-25T10:11:19;31.00;72.20
16643;DHT22;8435;52.184;5.406;2022-07-25T10:13:47;31.20;70.40
16643;DHT22;8435;52.184;5.406;2022-07-25T10:16:19;31.30;70.00
16643;DHT22;8435;52.184;5.406;2022-07-25T10:18:48;31.30;69.10
16643;DHT22;8435;52.184;5.406;2022-07-25T10:21:15;31.30;68.80
16643;DHT22;8435;52.184;5.406;2022-07-25T10:23:44;31.30;68.40
16643;DHT22;8435;52.184;5.406;2022-07-25T10:26:13;31.20;68.60
16643;DHT22;8435;52.184;5.406;2022-07-25T10:28:42;31.00;68.40
16643;DHT22;8435;52.184;5.406;2022-07-25T10:31:20;30.80;68.40
16643;DHT22;8435;52.184;5.406;2022-07-25T10:33:50;30.70;69.30
16643;DHT22;8435;52.184;5.406;2022-07-25T10:36:18;30.60;69.00
16643;DHT22;8435;52.184;5.406;2022-07-25T10:38:46;30.60;68.70
16643;DHT22;8435;52.184;5.406;2022-07-25T10:41:15;30.50;68.40
16643;DHT22;8435;52.184;5.406;2022-07-25T10:43:44;30.40;68.30
16643;DHT22;8435;52.184;5.406;2022-07-25T10:46:14;30.40;68.70
16643;DHT22;8435;52.184;5.406;2022-07-25T10:48:55;30.30;69.20
16643;DHT22;8435;52.184;5.406;2022-07-25T10:51:25;30.30;69.70
16643;DHT22;8435;52.184;5.406;2022-07-25T10:53:52;30.20;70.10
16643;DHT22;8435;52.184;5.406;2022-07-25T10:56:21;30.20;70.50
16643;DHT22;8435;52.184;5.406;2022-07-25T10:58:50;30.20;70.10
16643;DHT22;8435;52.184;5.406;2022-07-25T11:01:22;30.10;70.70
16643;DHT22;8435;52.184;5.406;2022-07-25T11:03:51;30.10;70.50
16643;DHT22;8435;52.184;5.406;2022-07-25T11:06:32;30.00;70.50
16643;DHT22;8435;52.184;5.406;2022-07-25T11:08:59;29.90;71.10
16643;DHT22;8435;52.184;5.406;2022-07-25T11:11:34;29.80;70.70
16643;DHT22;8435;52.184;5.406;2022-07-25T11:14:02;29.80;70.20
16643;DHT22;8435;52.184;5.406;2022-07-25T11:16:29;29.70;70.20
16643;DHT22;8435;52.184;5.406;2022-07-25T11:18:57;29.70;70.30
16643;DHT22;8435;52.184;5.406;2022-07-25T11:21:24;29.70;70.40
16643;DHT22;8435;52.184;5.406;2022-07-25T11:23:51;29.60;70.10
16643;DHT22;8435;52.184;5.406;2022-07-25T11:26:18;29.60;69.90
16643;DHT22;8435;52.184;5.406;2022-07-25T11:28:49;29.50;69.70
16643;DHT22;8435;52.184;5.406;2022-07-25T11:31:17;29.40;69.60
16643;DHT22;8435;52.184;5.406;2022-07-25T11:33:47;29.30;69.60
16643;DHT22;8435;52.184;5.406;2022-07-25T11:36:16;29.20;70.00
16643;DHT22;8435;52.184;5.406;2022-07-25T11:38:47;29.00;70.20
16643;DHT22;8435;52.184;5.406;2022-07-25T11:41:14;29.00;70.50
16643;DHT22;8435;52.184;5.406;2022-07-25T11:43:47;28.90;70.80
16643;DHT22;8435;52.184;5.406;2022-07-25T11:46:14;28.90;70.80
16643;DHT22;8435;52.184;5.406;2022-07-25T11:48:42;28.80;71.20
16643;DHT22;8435;52.184;5.406;2022-07-25T11:51:14;28.80;71.30
16643;DHT22;8435;52.184;5.406;2022-07-25T11:53:44;28.60;71.60
16643;DHT22;8435;52.184;5.406;2022-07-25T11:56:12;28.60;71.30
16643;DHT22;8435;52.184;5.406;2022-07-25T11:58:39;28.50;71.60
16643;DHT22;8435;52.184;5.406;2022-07-25T12:01:11;28.40;71.60
16643;DHT22;8435;52.184;5.406;2022-07-25T12:03:39;28.30;72.20
16643;DHT22;8435;52.184;5.406;2022-07-25T12:06:07;28.20;72.70
16643;DHT22;8435;52.184;5.406;2022-07-25T12:08:37;28.10;73.40
16643;DHT22;8435;52.184;5.406;2022-07-25T12:11:15;28.00;74.20
16643;DHT22;8435;52.184;5.406;2022-07-25T12:13:42;28.00;74.50
16643;DHT22;8435;52.184;5.406;2022-07-25T12:16:09;28.00;74.60
16643;DHT22;8435;52.184;5.406;2022-07-25T12:18:37;27.90;74.70
16643;DHT22;8435;52.184;5.406;2022-07-25T12:21:04;27.90;74.90
16643;DHT22;8435;52.184;5.406;2022-07-25T12:23:31;27.90;74.30
16643;DHT22;8435;52.184;5.406;2022-07-25T12:25:59;27.80;74.00
16643;DHT22;8435;52.184;5.406;2022-07-25T12:28:27;27.80;74.00
16643;DHT22;8435;52.184;5.406;2022-07-25T12:30:54;27.80;74.30
16643;DHT22;8435;52.184;5.406;2022-07-25T12:33:20;27.70;74.60
16643;DHT22;8435;52.184;5.406;2022-07-25T12:35:47;27.60;74.60
16643;DHT22;8435;52.184;5.406;2022-07-25T12:38:14;27.60;74.90
16643;DHT22;8435;52.184;5.406;2022-07-25T12:40:41;27.60;75.30
16643;DHT22;8435;52.184;5.406;2022-07-25T12:43:08;27.60;75.20
16643;DHT22;8435;52.184;5.406;2022-07-25T12:45:38;27.60;74.70
16643;DHT22;8435;52.184;5.406;2022-07-25T12:48:06;27.60;74.50
16643;DHT22;8435;52.184;5.406;2022-07-25T12:50:36;27.60;73.70
16643;DHT22;8435;52.184;5.406;2022-07-25T12:53:03;27.70;72.90
16643;DHT22;8435;52.184;5.406;2022-07-25T12:55:32;27.70;72.50
16643;DHT22;8435;52.184;5.406;2022-07-25T12:58:01;27.80;72.80
16643;DHT22;8435;52.184;5.406;2022-07-25T13:00:39;27.80;72.30
16643;DHT22;8435;52.184;5.406;2022-07-25T13:03:06;27.80;71.60
16643;DHT22;8435;52.184;5.406;2022-07-25T13:05:33;27.90;71.50
16643;DHT22;8435;52.184;5.406;2022-07-25T13:07:59;27.90;71.10
16643;DHT22;8435;52.184;5.406;2022-07-25T13:10:26;27.90;70.30
16643;DHT22;8435;52.184;5.406;2022-07-25T13:12:55;28.00;70.60
16643;DHT22;8435;52.184;5.406;2022-07-25T13:15:22;28.00;70.00
16643;DHT22;8435;52.184;5.406;2022-07-25T13:17:53;28.00;69.70
16643;DHT22;8435;52.184;5.406;2022-07-25T13:20:20;28.00;69.80
16643;DHT22;8435;52.184;5.406;2022-07-25T13:22:47;28.00;69.00
16643;DHT22;8435;52.184;5.406;2022-07-25T13:25:14;28.10;68.20
16643;DHT22;8435;52.184;5.406;2022-07-25T13:27:40;28.10;67.60
16643;DHT22;8435;52.184;5.406;2022-07-25T13:30:08;28.20;67.70
16643;DHT22;8435;52.184;5.406;2022-07-25T13:32:35;28.20;67.80
16643;DHT22;8435;52.184;5.406;2022-07-25T13:35:04;28.20;67.80
16643;DHT22;8435;52.184;5.406;2022-07-25T13:37:31;28.20;67.70
16643;DHT22;8435;52.184;5.406;2022-07-25T13:40:01;28.30;67.70
16643;DHT22;8435;52.184;5.406;2022-07-25T13:42:27;28.30;67.00
16643;DHT22;8435;52.184;5.406;2022-07-25T13:44:54;28.40;66.80
16643;DHT22;8435;52.184;5.406;2022-07-25T13:47:21;28.40;66.50
16643;DHT22;8435;52.184;5.406;2022-07-25T13:49:48;28.40;66.00
16643;DHT22;8435;52.184;5.406;2022-07-25T13:52:16;28.50;65.90
16643;DHT22;8435;52.184;5.406;2022-07-25T13:54:43;28.50;65.40
16643;DHT22;8435;52.184;5.406;2022-07-25T13:57:10;28.40;65.40
16643;DHT22;8435;52.184;5.406;2022-07-25T13:59:36;28.50;65.60
16643;DHT22;8435;52.184;5.406;2022-07-25T14:02:03;28.50;65.50
16643;DHT22;8435;52.184;5.406;2022-07-25T14:04:30;28.50;64.80
16643;DHT22;8435;52.184;5.406;2022-07-25T14:06:58;28.50;65.20
16643;DHT22;8435;52.184;5.406;2022-07-25T14:09:27;28.50;64.30
16643;DHT22;8435;52.184;5.406;2022-07-25T14:11:54;28.50;64.70
16643;DHT22;8435;52.184;5.406;2022-07-25T14:14:20;28.40;64.80
16643;DHT22;8435;52.184;5.406;2022-07-25T14:16:48;28.40;64.60
16643;DHT22;8435;52.184;5.406;2022-07-25T14:19:18;28.30;64.80
16643;DHT22;8435;52.184;5.406;2022-07-25T14:21:45;28.30;65.00
16643;DHT22;8435;52.184;5.406;2022-07-25T14:24:14;28.30;65.00
16643;DHT22;8435;52.184;5.406;2022-07-25T14:26:43;28.20;64.90
16643;DHT22;8435;52.184;5.406;2022-07-25T14:29:09;28.20;64.60
16643;DHT22;8435;52.184;5.406;2022-07-25T14:31:37;28.20;65.20
16643;DHT22;8435;52.184;5.406;2022-07-25T14:34:04;28.20;65.40
16643;DHT22;8435;52.184;5.406;2022-07-25T14:36:31;28.20;66.00
16643;DHT22;8435;52.184;5.406;2022-07-25T14:39:02;28.20;65.10
16643;DHT22;8435;52.184;5.406;2022-07-25T14:41:29;28.20;65.40
16643;DHT22;8435;52.184;5.406;2022-07-25T14:43:57;28.20;65.30
16643;DHT22;8435;52.184;5.406;2022-07-25T14:46:24;28.30;64.70
16643;DHT22;8435;52.184;5.406;2022-07-25T14:48:51;28.20;62.60
16643;DHT22;8435;52.184;5.406;2022-07-25T14:51:19;28.30;62.40
16643;DHT22;8435;52.184;5.406;2022-07-25T14:53:45;28.30;62.30
16643;DHT22;8435;52.184;5.406;2022-07-25T14:56:12;28.20;62.50
16643;DHT22;8435;52.184;5.406;2022-07-25T14:58:39;28.20;62.30
16643;DHT22;8435;52.184;5.406;2022-07-25T15:01:08;28.20;62.30
16643;DHT22;8435;52.184;5.406;2022-07-25T15:03:36;28.20;62.00
16643;DHT22;8435;52.184;5.406;2022-07-25T15:06:03;28.20;61.50
16643;DHT22;8435;52.184;5.406;2022-07-25T15:08:35;28.10;61.30
16643;DHT22;8435;52.184;5.406;2022-07-25T15:11:04;28.10;61.30
16643;DHT22;8435;52.184;5.406;2022-07-25T15:13:31;28.00;61.70
16643;DHT22;8435;52.184;5.406;2022-07-25T15:16:01;27.90;62.70
16643;DHT22;8435;52.184;5.406;2022-07-25T15:18:30;27.90;62.60
16643;DHT22;8435;52.184;5.406;2022-07-25T15:20:57;27.80;62.80
16643;DHT22;8435;52.184;5.406;2022-07-25T15:23:25;27.80;63.10
16643;DHT22;8435;52.184;5.406;2022-07-25T15:25:52;27.80;63.40
16643;DHT22;8435;52.184;5.406;2022-07-25T15:28:20;27.70;63.30
16643;DHT22;8435;52.184;5.406;2022-07-25T15:30:53;27.70;63.40
16643;DHT22;8435;52.184;5.406;2022-07-25T15:33:20;27.70;63.80
16643;DHT22;8435;52.184;5.406;2022-07-25T15:35:49;27.70;63.60
16643;DHT22;8435;52.184;5.406;2022-07-25T15:38:16;27.70;62.40
16643;DHT22;8435;52.184;5.406;2022-07-25T15:40:45;27.80;62.60
16643;DHT22;8435;52.184;5.406;2022-07-25T15:43:12;27.80;62.10
16643;DHT22;8435;52.184;5.406;2022-07-25T15:45:41;27.80;62.10
16643;DHT22;8435;52.184;5.406;2022-07-25T15:48:09;27.70;61.80
16643;DHT22;8435;52.184;5.406;2022-07-25T15:50:38;27.60;61.50